Airfield :
LOGIN :

Register | Disclaimer

   EN    FR    IT 

 










Legend :    VFR   Marginal VFR   IFR   Intensive IFR   Very Intensive IFR
Visi :
Ceiling :
>= 8 km
>= 3000ft
5 to 8 km
1000 to 3000 ft
1500m to 5 km
500 to 1000 ft
800 to 1500m
200 to 500 ft
< 800m
< 200 ft
Symbols :   Thunderstorms  Fog  Heavy snow  Heavy precipitations  Wind > 20 kt
SIGMETs :     Misc.  Thunderstorms  Icing  Turbulence  Mountain Waves  Volcanic Ashes







- Airport Elevation : 16 ft
- IATA code : SDR


LEXJ - Santander Cantabria

CURRENT METAR :
  • 240830Z 00000KT 9999 BKN025 BKN050 20/17 Q1022

EXPIRED METARs :
  • 240800Z 00000KT 9999 BKN025 20/16 Q1023
  • 240730Z VRB01KT 9999 SCT022 SCT045 19/17 Q1023
  • 240700Z VRB01KT 9999 FEW022 BKN030 19/16 Q1023
  • 240630Z 22001KT 9999 FEW022 BKN030 18/16 Q1023
  • 240600Z VRB01KT 9000 SCT022 BKN030 18/16 Q1023

TAF TAF LEXJ
Valid from the 23 at 15:00 until the 24 at 15:00 UTC


231400Z 2315/2415 30007KT 9999 SCT020 BKN030 TX22/2412Z TN17/2403Z
TEMPO 2320/2409 BKN012
PROB40
TEMPO 2320/2409 3000 -RADZ BR BKN005
PROB30
TEMPO 2403/2408 0600 BCFG BKN002
No reported NOTAMs for that airfield.



MET'MAP, your aeronautical weather chart ! - Copyright ORBIFLY December 2007 - Disclaimer

ORBIFLY MET'MAP TEAM :

Programming & Development : Alexandra Zaïnal
Concept & Development : Baudouin d'Aumeries
Co-Development & Prog : Marc-Olivier Méhu
Technical & hardware support : Manuel Goepfert

Contact : metmap@orbifly.com




SOURCES & CREDITS :

   NOAA